Detroit, Michigan
Traffic Map
Current Weather Conditions
Detroit, Michigan
Clear
Clear
25°
Feels Like: 18°
Wind Chill: 18° Ceiling: Unl
Heat Index: 25° Visibility: 15mi
Dew Point: 19° Wind: 6mph
Humidity: 80% Direction: 160° (SSE)
Pressure: 30.29in Gusts: 0mph
Raw Report DataCYQG 290100Z 16005KT 15SM SKC M04/M07 A3029 RMK SLP267
Traffic Incident Summary
Active as of:
Severity:
Category:
InformationThere was an issue retrieving the traffic information for this location. Please try a different location or try again shortly.
Advertisements
Track Severe Weather on mobile